createdAt,value
2018-12-20T00:02:13.322Z,3.23
2018-12-20T00:04:39.999Z,3.07
2018-12-20T00:07:06.730Z,3.33
2018-12-20T00:09:33.465Z,3.40
2018-12-20T00:12:00.278Z,3.13
2018-12-20T00:14:30.053Z,3.23
2018-12-20T00:17:01.463Z,3.10
2018-12-20T00:19:28.444Z,3.23
2018-12-20T00:21:55.175Z,3.20
2018-12-20T00:24:22.017Z,3.53
2018-12-20T00:26:48.814Z,3.70
2018-12-20T00:29:15.729Z,3.07
2018-12-20T00:31:42.657Z,3.13
2018-12-20T00:34:09.626Z,2.80
2018-12-20T00:36:36.526Z,3.50
2018-12-20T00:39:05.413Z,2.80
2018-12-20T00:41:32.200Z,3.17
2018-12-20T00:43:59.047Z,3.80
2018-12-20T00:46:25.788Z,3.40
2018-12-20T00:48:52.501Z,2.93
2018-12-20T00:51:19.183Z,3.50
2018-12-20T00:53:45.899Z,3.57
2018-12-20T00:56:12.604Z,2.60
2018-12-20T00:58:39.319Z,3.20
2018-12-20T01:01:06.038Z,3.80
2018-12-20T01:03:33.160Z,2.70
2018-12-20T01:06:00.024Z,2.77
2018-12-20T01:08:27.102Z,4.20
2018-12-20T01:10:53.821Z,2.87
2018-12-20T01:13:20.569Z,3.40
2018-12-20T01:15:47.260Z,3.63
2018-12-20T01:18:14.142Z,2.80
2018-12-20T01:20:40.988Z,3.30
2018-12-20T01:23:07.803Z,3.10
2018-12-20T01:25:34.669Z,3.00
2018-12-20T01:28:01.530Z,3.43
2018-12-20T01:30:28.374Z,2.60
2018-12-20T01:32:55.165Z,2.70
2018-12-20T01:35:21.905Z,2.50
2018-12-20T01:37:48.603Z,2.77
2018-12-20T01:40:15.453Z,3.17
2018-12-20T01:42:42.489Z,3.10
2018-12-20T01:45:09.404Z,3.07
2018-12-20T01:47:36.366Z,2.90
2018-12-20T01:50:05.106Z,2.75
2018-12-20T01:52:31.985Z,2.13
2018-12-20T01:54:58.820Z,2.70
2018-12-20T01:57:25.594Z,2.53
2018-12-20T01:59:52.564Z,2.60
2018-12-20T02:02:19.352Z,2.47
2018-12-20T02:04:46.147Z,2.87
2018-12-20T02:07:12.926Z,2.60
2018-12-20T02:09:39.691Z,2.93
2018-12-20T02:12:06.766Z,2.93
2018-12-20T02:14:33.554Z,2.60
2018-12-20T02:17:00.479Z,2.83
2018-12-20T02:19:27.787Z,2.70
2018-12-20T02:21:54.567Z,2.90
2018-12-20T02:24:21.531Z,2.53
2018-12-20T02:26:48.456Z,2.50
2018-12-20T02:29:15.421Z,2.40
2018-12-20T02:31:42.415Z,3.15
2018-12-20T02:34:09.464Z,2.17
2018-12-20T02:36:36.268Z,2.67
2018-12-20T02:39:04.149Z,2.30
2018-12-20T02:41:32.733Z,2.80
2018-12-20T02:43:59.678Z,2.93
2018-12-20T02:46:26.445Z,2.63
2018-12-20T02:48:53.378Z,2.50
2018-12-20T02:51:20.072Z,2.00
2018-12-20T02:53:46.892Z,2.30
2018-12-20T02:56:13.757Z,2.03
2018-12-20T02:58:40.661Z,2.20
2018-12-20T03:01:07.475Z,2.73
2018-12-20T03:03:34.245Z,3.10
2018-12-20T03:06:01.482Z,2.37
2018-12-20T03:08:28.319Z,2.07
2018-12-20T03:10:55.106Z,2.57
2018-12-20T03:13:21.796Z,2.20
2018-12-20T03:15:48.791Z,2.27
2018-12-20T03:18:15.566Z,2.47
2018-12-20T03:20:42.417Z,2.27
2018-12-20T03:23:09.270Z,2.27
2018-12-20T03:25:36.016Z,2.10
2018-12-20T03:28:02.937Z,2.40
2018-12-20T03:30:29.809Z,2.23
2018-12-20T03:32:56.939Z,2.57
2018-12-20T03:35:23.830Z,1.80
2018-12-20T03:37:50.597Z,2.30
2018-12-20T03:40:17.579Z,1.60
2018-12-20T03:42:44.674Z,1.97
2018-12-20T03:45:13.151Z,1.73
2018-12-20T03:47:40.200Z,2.10
2018-12-20T03:50:07.208Z,2.23
2018-12-20T03:52:34.053Z,1.80
2018-12-20T03:55:00.967Z,2.10
2018-12-20T03:57:27.752Z,2.80
2018-12-20T03:59:54.495Z,1.83
2018-12-20T04:02:23.174Z,2.50
2018-12-20T04:04:49.907Z,1.80
2018-12-20T04:07:16.584Z,2.00
2018-12-20T04:09:43.300Z,2.10
2018-12-20T04:12:10.112Z,1.87
2018-12-20T04:14:37.112Z,2.27
2018-12-20T04:17:04.347Z,2.00
2018-12-20T04:19:31.362Z,1.60
2018-12-20T04:21:58.221Z,2.27
2018-12-20T04:24:25.577Z,1.57
2018-12-20T04:26:52.747Z,1.80
2018-12-20T04:29:19.962Z,2.03
2018-12-20T04:31:46.789Z,2.37
2018-12-20T04:34:13.568Z,1.67
2018-12-20T04:36:40.390Z,2.20
2018-12-20T04:39:07.665Z,1.57
2018-12-20T04:41:34.380Z,1.70
2018-12-20T04:44:01.591Z,1.90
2018-12-20T04:46:28.716Z,2.10
2018-12-20T04:48:55.512Z,2.10
2018-12-20T04:51:22.503Z,1.80
2018-12-20T04:53:49.308Z,2.27
2018-12-20T04:56:16.178Z,2.00
2018-12-20T04:58:43.133Z,1.77
2018-12-20T05:01:09.867Z,2.00
2018-12-20T05:03:36.805Z,1.80
2018-12-20T05:06:03.842Z,2.60
2018-12-20T05:08:30.687Z,1.47
2018-12-20T05:10:57.458Z,1.67
2018-12-20T05:13:24.189Z,1.80
2018-12-20T05:15:56.002Z,1.67
2018-12-20T05:18:19.701Z,1.87
2018-12-20T05:20:46.424Z,1.60
2018-12-20T05:23:13.117Z,1.70
2018-12-20T05:25:39.931Z,1.73
2018-12-20T05:28:06.641Z,1.70
2018-12-20T05:30:33.681Z,2.00
2018-12-20T05:33:00.576Z,2.00
2018-12-20T05:35:27.464Z,1.80
2018-12-20T05:37:54.156Z,1.83
2018-12-20T05:40:20.887Z,1.97
2018-12-20T05:42:47.654Z,1.90
2018-12-20T05:45:14.419Z,1.50
2018-12-20T05:47:41.376Z,1.60
2018-12-20T05:50:08.439Z,2.00
2018-12-20T05:52:35.466Z,2.07
2018-12-20T05:55:02.424Z,2.67
2018-12-20T05:57:29.471Z,2.50
2018-12-20T05:59:56.239Z,3.20
2018-12-20T06:02:23.289Z,2.70
2018-12-20T06:04:49.989Z,2.70
2018-12-20T06:07:16.699Z,2.83
2018-12-20T06:09:43.587Z,2.13
2018-12-20T06:12:10.341Z,2.57
2018-12-20T06:14:37.026Z,2.50
2018-12-20T06:17:03.907Z,2.33
2018-12-20T06:19:30.689Z,2.50
2018-12-20T06:21:57.449Z,2.10
2018-12-20T06:24:24.141Z,2.30
2018-12-20T06:26:50.861Z,3.00
2018-12-20T06:29:17.553Z,2.20
2018-12-20T06:31:44.270Z,2.20
2018-12-20T06:34:10.953Z,2.70
2018-12-20T06:36:37.664Z,1.87
2018-12-20T06:39:06.304Z,2.00
2018-12-20T06:41:33.201Z,2.17
2018-12-20T06:44:06.996Z,1.93
2018-12-20T06:46:28.648Z,2.07
2018-12-20T06:48:55.331Z,1.63
2018-12-20T06:51:22.044Z,2.00
2018-12-20T06:53:48.732Z,2.23
2018-12-20T06:56:15.443Z,1.57
2018-12-20T06:58:42.203Z,1.60
2018-12-20T07:01:09.132Z,1.80
2018-12-20T07:03:35.830Z,1.90
2018-12-20T07:06:02.848Z,2.00
2018-12-20T07:08:29.536Z,1.73
2018-12-20T07:10:56.255Z,1.53
2018-12-20T07:13:22.938Z,1.57
2018-12-20T07:15:49.651Z,1.70
2018-12-20T07:18:16.332Z,2.33
2018-12-20T07:20:43.176Z,2.53
2018-12-20T07:23:09.854Z,1.70
2018-12-20T07:25:36.788Z,1.50
2018-12-20T07:28:03.673Z,1.87
2018-12-20T07:30:30.392Z,1.50
2018-12-20T07:32:57.082Z,1.80
2018-12-20T07:35:23.765Z,2.07
2018-12-20T07:37:50.486Z,1.83
2018-12-20T07:40:17.161Z,1.67
2018-12-20T07:42:43.981Z,1.73
2018-12-20T07:45:10.721Z,1.60
2018-12-20T07:47:37.541Z,1.73
2018-12-20T07:50:04.996Z,2.07
2018-12-20T07:52:31.764Z,1.77
2018-12-20T07:54:58.457Z,1.50
2018-12-20T07:57:25.163Z,1.63
2018-12-20T07:59:51.852Z,1.77
2018-12-20T08:02:20.185Z,1.33
2018-12-20T08:04:46.947Z,1.70
2018-12-20T08:07:13.742Z,2.00
2018-12-20T08:09:40.510Z,1.80
2018-12-20T08:12:07.340Z,1.17
2018-12-20T08:14:34.147Z,1.30
2018-12-20T08:17:00.879Z,1.50
2018-12-20T08:19:36.070Z,1.50
2018-12-20T08:21:56.386Z,1.53
2018-12-20T08:24:23.080Z,1.50
2018-12-20T08:26:49.789Z,1.23
2018-12-20T08:29:16.475Z,1.80
2018-12-20T08:31:43.201Z,1.90
2018-12-20T08:34:09.890Z,1.40
2018-12-20T08:36:36.727Z,1.90
2018-12-20T08:39:05.530Z,1.50
2018-12-20T08:41:32.249Z,2.00
2018-12-20T08:43:58.935Z,1.70
2018-12-20T08:46:25.652Z,1.70
2018-12-20T08:48:52.337Z,1.73
2018-12-20T08:51:19.054Z,2.10
2018-12-20T08:53:45.727Z,1.60
2018-12-20T08:56:12.440Z,1.47
2018-12-20T08:58:39.209Z,1.67
2018-12-20T09:01:06.096Z,1.90
2018-12-20T09:03:33.136Z,2.43
2018-12-20T09:05:59.844Z,1.57
2018-12-20T09:08:26.529Z,1.77
2018-12-20T09:10:53.222Z,1.80
2018-12-20T09:13:19.938Z,1.50
2018-12-20T09:15:46.631Z,1.37
2018-12-20T09:18:13.341Z,2.60
2018-12-20T09:20:40.021Z,1.80
2018-12-20T09:23:06.924Z,1.30
2018-12-20T09:25:33.608Z,1.90
2018-12-20T09:28:00.325Z,1.97
2018-12-20T09:30:30.665Z,1.50
2018-12-20T09:32:55.755Z,1.80
2018-12-20T09:35:22.449Z,1.73
2018-12-20T09:37:49.170Z,1.70
2018-12-20T09:40:15.914Z,1.50
2018-12-20T09:42:42.693Z,1.67
2018-12-20T09:45:09.532Z,1.43
2018-12-20T09:47:41.994Z,3.40
2018-12-20T09:50:08.771Z,1.57
2018-12-20T09:52:35.648Z,2.07
2018-12-20T09:55:02.326Z,2.37
2018-12-20T09:57:29.141Z,1.77
2018-12-20T09:59:55.836Z,1.80
2018-12-20T10:02:22.552Z,1.77
2018-12-20T10:04:50.106Z,2.60
2018-12-20T10:07:16.819Z,1.63
2018-12-20T10:09:43.500Z,1.30
2018-12-20T10:12:10.302Z,1.27
2018-12-20T10:14:37.198Z,1.50
2018-12-20T10:17:03.917Z,1.50
2018-12-20T10:19:30.607Z,1.63
2018-12-20T10:21:57.347Z,1.87
2018-12-20T10:24:24.028Z,1.80
2018-12-20T10:26:50.740Z,1.37
2018-12-20T10:29:17.421Z,1.63
2018-12-20T10:31:44.125Z,1.30
2018-12-20T10:34:10.818Z,1.33
2018-12-20T10:36:37.870Z,1.80
2018-12-20T10:39:05.949Z,2.27
2018-12-20T10:41:32.723Z,1.27
2018-12-20T10:43:59.403Z,1.77
2018-12-20T10:46:26.090Z,1.27
2018-12-20T10:48:52.796Z,1.57
2018-12-20T10:51:19.482Z,1.83
2018-12-20T10:53:46.319Z,1.97
2018-12-20T10:56:13.042Z,1.33
2018-12-20T10:58:39.813Z,1.33
2018-12-20T11:01:12.300Z,1.70
2018-12-20T11:03:45.867Z,1.37
2018-12-20T11:06:18.344Z,1.60
2018-12-20T11:11:59.041Z,1.47
2018-12-20T11:14:25.717Z,1.20
2018-12-20T11:16:52.439Z,1.30
2018-12-20T11:19:19.120Z,1.53
2018-12-20T11:21:45.834Z,1.53
2018-12-20T11:24:12.600Z,1.10
2018-12-20T11:26:39.432Z,1.03
2018-12-20T11:29:06.307Z,1.33
2018-12-20T11:31:32.992Z,1.20
2018-12-20T11:33:59.718Z,1.10
2018-12-20T11:36:26.406Z,1.27
2018-12-20T11:38:53.126Z,1.30
2018-12-20T11:41:19.811Z,1.33
2018-12-20T11:43:46.544Z,1.50
2018-12-20T11:46:13.312Z,1.73
2018-12-20T11:48:40.128Z,1.23
2018-12-20T11:51:06.980Z,1.30
2018-12-20T11:53:33.696Z,1.37
2018-12-20T11:56:00.394Z,2.07
2018-12-20T11:58:27.214Z,1.33
2018-12-20T12:00:53.924Z,1.60
2018-12-20T12:03:20.637Z,1.37
2018-12-20T12:05:47.416Z,1.67
2018-12-20T12:08:14.124Z,1.27
2018-12-20T12:10:40.868Z,1.53
2018-12-20T12:13:07.704Z,1.10
2018-12-20T12:15:34.387Z,1.23
2018-12-20T12:18:01.096Z,1.30
2018-12-20T12:20:27.787Z,1.50
2018-12-20T12:22:54.506Z,1.00
2018-12-20T12:25:21.198Z,1.00
2018-12-20T12:27:48.036Z,1.10
2018-12-20T12:30:14.893Z,1.30
2018-12-20T12:32:41.714Z,1.17
2018-12-20T12:35:08.662Z,1.17
2018-12-20T12:37:35.375Z,1.43
2018-12-20T12:40:02.060Z,1.30
2018-12-20T12:42:28.744Z,1.27
2018-12-20T12:44:55.457Z,1.30
2018-12-20T12:47:24.124Z,1.27
2018-12-20T12:49:50.832Z,1.70
2018-12-20T12:52:17.529Z,1.40
2018-12-20T12:54:44.480Z,1.30
2018-12-20T12:57:11.207Z,1.77
2018-12-20T12:59:38.144Z,1.87
2018-12-20T13:02:04.847Z,1.20
2018-12-20T13:04:31.576Z,1.60
2018-12-20T13:06:58.268Z,1.00
2018-12-20T13:09:24.984Z,1.47
2018-12-20T13:11:51.672Z,1.17
2018-12-20T13:14:18.534Z,1.97
2018-12-20T13:16:45.300Z,1.27
2018-12-20T13:19:12.124Z,1.10
2018-12-20T13:21:39.034Z,1.37
2018-12-20T13:24:05.788Z,1.67
2018-12-20T13:26:32.472Z,1.27
2018-12-20T13:28:59.183Z,1.30
2018-12-20T13:31:25.866Z,1.27
2018-12-20T13:33:52.585Z,1.40
2018-12-20T13:36:19.289Z,1.30
2018-12-20T13:38:46.100Z,1.60
2018-12-20T13:41:12.935Z,8.03
2018-12-20T13:43:39.701Z,1.90
2018-12-20T13:46:06.428Z,1.27
2018-12-20T13:48:33.144Z,1.20
2018-12-20T13:50:59.833Z,1.20
2018-12-20T13:53:26.549Z,1.33
2018-12-20T13:55:53.249Z,1.50
2018-12-20T13:58:20.002Z,1.50
2018-12-20T14:00:46.696Z,1.27
2018-12-20T14:03:13.450Z,1.37
2018-12-20T14:05:40.382Z,1.40
2018-12-20T14:08:07.117Z,1.20
2018-12-20T14:10:33.837Z,2.07
2018-12-20T14:13:00.529Z,1.90
2018-12-20T14:15:27.250Z,1.40
2018-12-20T14:17:53.933Z,1.13
2018-12-20T14:20:20.645Z,1.87
2018-12-20T14:22:47.329Z,2.27
2018-12-20T14:25:14.058Z,1.80
2018-12-20T14:27:40.814Z,1.43
2018-12-20T14:30:07.918Z,1.20
2018-12-20T14:32:34.631Z,1.30
2018-12-20T14:35:01.353Z,1.60
2018-12-20T14:37:28.090Z,4.50
2018-12-20T14:39:54.805Z,1.60
2018-12-20T14:42:21.487Z,1.17
2018-12-20T14:44:48.208Z,1.77
2018-12-20T14:47:14.899Z,1.23
2018-12-20T14:49:41.755Z,1.53
2018-12-20T14:52:08.460Z,1.10
2018-12-20T14:54:35.173Z,1.13
2018-12-20T14:57:01.874Z,1.23
2018-12-20T14:59:28.593Z,1.27
2018-12-20T15:01:55.291Z,1.27
2018-12-20T15:04:22.006Z,1.30
2018-12-20T15:06:48.698Z,1.20
2018-12-20T15:09:15.410Z,1.33
2018-12-20T15:11:42.207Z,1.40
2018-12-20T15:14:08.968Z,1.60
2018-12-20T15:16:35.661Z,3.60
2018-12-20T15:19:02.375Z,2.03
2018-12-20T15:21:29.632Z,1.10
2018-12-20T15:23:56.322Z,1.40
2018-12-20T15:26:23.052Z,1.83
2018-12-20T15:28:49.741Z,1.37
2018-12-20T15:31:16.624Z,1.30
2018-12-20T15:33:43.387Z,1.10
2018-12-20T15:36:10.282Z,2.00
2018-12-20T15:38:36.970Z,2.17
2018-12-20T15:41:03.776Z,2.07
2018-12-20T15:43:31.661Z,1.57
2018-12-20T15:45:58.376Z,1.70
2018-12-20T15:48:25.073Z,1.20
2018-12-20T15:50:51.823Z,1.67
2018-12-20T15:53:18.627Z,1.30
2018-12-20T15:55:45.396Z,1.50
2018-12-20T15:58:12.274Z,1.90
2018-12-20T16:00:39.032Z,1.30
2018-12-20T16:03:05.728Z,1.33
2018-12-20T16:05:32.441Z,1.40
2018-12-20T16:08:01.111Z,1.97
2018-12-20T16:10:27.829Z,1.50
2018-12-20T16:12:54.521Z,1.77
2018-12-20T16:15:21.729Z,1.20
2018-12-20T16:17:48.430Z,1.57
2018-12-20T16:20:15.266Z,1.23
2018-12-20T16:22:42.136Z,1.37
2018-12-20T16:25:08.938Z,1.23
2018-12-20T16:27:35.624Z,1.37
2018-12-20T16:30:02.336Z,1.20
2018-12-20T16:32:29.140Z,1.33
2018-12-20T16:34:55.856Z,1.27
2018-12-20T16:37:23.031Z,1.13
2018-12-20T16:39:49.750Z,1.00
2018-12-20T16:42:16.439Z,1.07
2018-12-20T16:44:43.346Z,1.27
2018-12-20T16:47:10.089Z,1.30
2018-12-20T16:49:36.869Z,1.23
2018-12-20T16:52:03.556Z,2.17
2018-12-20T16:54:30.276Z,1.43
2018-12-20T16:56:56.985Z,1.27
2018-12-20T16:59:23.668Z,1.40
2018-12-20T17:01:50.513Z,1.37
2018-12-20T17:04:17.212Z,1.87
2018-12-20T17:06:44.054Z,2.37
2018-12-20T17:09:10.752Z,2.90
2018-12-20T17:11:37.508Z,2.30
2018-12-20T17:14:04.197Z,2.73
2018-12-20T17:16:30.923Z,1.50
2018-12-20T17:18:57.622Z,1.80
2018-12-20T17:21:24.336Z,1.60
2018-12-20T17:23:51.025Z,2.47
2018-12-20T17:26:17.810Z,2.13
2018-12-20T17:28:44.649Z,2.23
2018-12-20T17:31:11.386Z,2.30
2018-12-20T17:33:38.074Z,1.93
2018-12-20T17:36:04.789Z,1.67
2018-12-20T17:38:31.473Z,1.87
2018-12-20T17:40:58.187Z,3.40
2018-12-20T17:43:24.877Z,2.60
2018-12-20T17:45:51.593Z,1.80
2018-12-20T17:48:18.291Z,1.90
2018-12-20T17:50:45.083Z,2.27
2018-12-20T17:53:11.849Z,1.53
2018-12-20T17:55:44.692Z,1.80
2018-12-20T17:58:07.280Z,2.17
2018-12-20T18:00:34.000Z,2.53
2018-12-20T18:03:00.760Z,1.97
2018-12-20T18:05:27.492Z,2.10
2018-12-20T18:07:54.169Z,2.07
2018-12-20T18:10:20.883Z,2.47
2018-12-20T18:12:47.596Z,2.73
2018-12-20T18:15:14.466Z,2.70
2018-12-20T18:17:41.203Z,2.47
2018-12-20T18:20:08.081Z,2.97
2018-12-20T18:22:35.223Z,3.00
2018-12-20T18:25:03.082Z,2.27
2018-12-20T18:27:30.716Z,2.60
2018-12-20T18:29:58.404Z,2.40
2018-12-20T18:32:25.804Z,2.57
2018-12-20T18:34:53.408Z,2.83
2018-12-20T18:37:20.993Z,2.97
2018-12-20T18:39:48.705Z,3.57
2018-12-20T18:42:16.473Z,2.63
2018-12-20T18:44:44.493Z,2.20
2018-12-20T18:47:11.538Z,2.90
2018-12-20T18:49:38.247Z,3.50
2018-12-20T18:52:05.022Z,3.10
2018-12-20T18:54:31.732Z,2.37
2018-12-20T18:56:58.439Z,2.50
2018-12-20T18:59:25.131Z,3.23
2018-12-20T19:01:51.862Z,3.10
2018-12-20T19:04:18.555Z,3.60
2018-12-20T19:06:45.364Z,4.00
2018-12-20T19:09:12.041Z,3.80
2018-12-20T19:11:38.845Z,5.40
2018-12-20T19:14:05.607Z,5.23
2018-12-20T19:16:32.318Z,4.37
2018-12-20T19:18:59.006Z,3.97
2018-12-20T19:21:25.725Z,4.60
2018-12-20T19:23:52.549Z,6.33
2018-12-20T19:26:19.265Z,3.70
2018-12-20T19:28:45.976Z,3.57
2018-12-20T19:31:12.726Z,4.33
2018-12-20T19:33:39.474Z,4.10
2018-12-20T19:36:06.183Z,3.97
2018-12-20T19:38:32.945Z,4.50
2018-12-20T19:40:59.782Z,4.07
2018-12-20T19:43:26.688Z,5.00
2018-12-20T19:45:54.171Z,5.00
2018-12-20T19:48:21.403Z,3.50
2018-12-20T19:50:49.080Z,4.40
2018-12-20T19:53:16.810Z,4.43
2018-12-20T19:55:44.750Z,3.10
2018-12-20T19:58:12.395Z,3.47
2018-12-20T20:00:40.056Z,3.50
2018-12-20T20:03:07.880Z,4.50
2018-12-20T20:05:35.632Z,3.72
2018-12-20T20:08:03.110Z,4.00
2018-12-20T20:10:30.656Z,3.55
2018-12-20T20:12:58.257Z,4.00
2018-12-20T20:15:25.887Z,3.70
2018-12-20T20:17:53.476Z,3.50
2018-12-20T20:20:21.152Z,3.27
2018-12-20T20:22:48.866Z,3.43
2018-12-20T20:25:16.541Z,4.08
2018-12-20T20:27:44.258Z,3.00
2018-12-20T20:30:13.524Z,3.00
2018-12-20T20:32:40.419Z,4.77
2018-12-20T20:35:07.897Z,3.50
2018-12-20T20:37:34.605Z,2.80
2018-12-20T20:40:01.296Z,3.00
2018-12-20T20:42:28.025Z,2.90
2018-12-20T20:44:54.729Z,2.87
2018-12-20T20:47:21.636Z,2.57
2018-12-20T20:49:48.406Z,3.07
2018-12-20T20:52:15.343Z,2.90
2018-12-20T20:54:42.085Z,3.93
2018-12-20T20:57:08.807Z,3.03
2018-12-20T20:59:35.493Z,3.10
2018-12-20T21:02:02.218Z,3.00
2018-12-20T21:04:28.907Z,2.80
2018-12-20T21:06:55.813Z,3.03
2018-12-20T21:09:22.579Z,2.73
2018-12-20T21:11:50.546Z,3.03
2018-12-20T21:14:17.379Z,2.83
2018-12-20T21:16:44.101Z,2.33
2018-12-20T21:19:10.789Z,2.70
2018-12-20T21:21:37.517Z,2.90
2018-12-20T21:24:04.202Z,3.10
2018-12-20T21:26:30.921Z,3.10
2018-12-20T21:28:57.604Z,3.80
2018-12-20T21:31:24.295Z,2.90
2018-12-20T21:33:51.035Z,2.40
2018-12-20T21:36:17.892Z,3.30
2018-12-20T21:38:44.610Z,2.43
2018-12-20T21:41:11.299Z,2.10
2018-12-20T21:43:38.021Z,2.50
2018-12-20T21:46:04.704Z,2.10
2018-12-20T21:48:31.412Z,1.97
2018-12-20T21:50:58.099Z,2.50
2018-12-20T21:53:24.816Z,2.17
2018-12-20T21:55:54.359Z,3.00
2018-12-20T21:58:21.318Z,2.53
2018-12-20T22:00:48.117Z,2.60
2018-12-20T22:03:14.827Z,1.83
2018-12-20T22:05:41.516Z,1.80
2018-12-20T22:08:08.228Z,2.83
2018-12-20T22:10:34.918Z,2.33
2018-12-20T22:13:01.640Z,2.13
2018-12-20T22:15:28.327Z,2.10
2018-12-20T22:17:55.040Z,2.87
2018-12-20T22:20:21.716Z,2.60
2018-12-20T22:22:48.568Z,2.90
2018-12-20T22:25:15.251Z,3.20
2018-12-20T22:27:41.956Z,2.23
2018-12-20T22:30:08.644Z,2.00
2018-12-20T22:32:35.356Z,1.93
2018-12-20T22:35:02.036Z,2.70
2018-12-20T22:37:28.746Z,1.80
2018-12-20T22:39:55.434Z,1.80
2018-12-20T22:42:22.152Z,1.80
2018-12-20T22:44:48.906Z,2.00
2018-12-20T22:47:15.674Z,1.70
2018-12-20T22:49:42.354Z,1.70
2018-12-20T22:52:09.067Z,2.07
2018-12-20T22:54:35.757Z,2.37
2018-12-20T22:57:02.474Z,1.73
2018-12-20T22:59:29.166Z,1.63
2018-12-20T23:01:55.884Z,1.80
2018-12-20T23:04:22.577Z,2.17
2018-12-20T23:06:49.420Z,2.50
2018-12-20T23:09:16.193Z,2.27
2018-12-20T23:11:42.949Z,1.47
2018-12-20T23:14:09.669Z,2.33
2018-12-20T23:16:36.352Z,2.20
2018-12-20T23:19:03.057Z,1.57
2018-12-20T23:21:29.744Z,1.82
2018-12-20T23:23:56.467Z,2.17
2018-12-20T23:26:23.150Z,1.90
2018-12-20T23:28:50.022Z,1.60
2018-12-20T23:31:16.705Z,1.90
2018-12-20T23:33:43.432Z,1.67
2018-12-20T23:36:10.127Z,2.10
2018-12-20T23:38:36.849Z,1.50
2018-12-20T23:41:03.548Z,1.80
2018-12-20T23:43:30.252Z,1.73
2018-12-20T23:45:56.929Z,1.77
2018-12-20T23:48:23.644Z,1.73
2018-12-20T23:50:50.465Z,2.27
2018-12-20T23:53:17.329Z,1.80
2018-12-20T23:55:44.015Z,2.10
2018-12-20T23:58:10.723Z,1.67
